• Join FlightAware (Why Join?)
  • Login
  • US Flag 
11:16AM EST


 

Airport Tracker/Info


-or-


 

Live Flight TrackerFlight Track Log ✈ SKW6492 ✈ 30-Apr-2013 ✈ KAUS - KDEN

Flight Track Log - Related Links

Times and Time Zones

All times are in EDT time to prevent confusion due to time zone crossing. See the SKW6492 flight status page for this flight to view local times or setup timezone preferences in your user account.

Time Position Orientation Groundspeed Altitude Reporting Facility
EDT Latitude Longitude Course Direction KTS MPH feet Rate Location/Type
04:23PM 30.4092 -97.6441 291° West  Level FlightAware Approximate
04:23PM 30.1997 -97.8039 291° West 248 285 6,600  Level Houston Center
04:24PM 30.4527 -97.7699 293° West  Level FlightAware Approximate
04:24PM 30.2425 -97.8778 304° West 268 308 9,300  Level Houston Center
04:25PM 30.4981 -97.8948 293° West  Level FlightAware Approximate
04:25PM 30.2922 -97.9589 305° West 284 327 11,400  Level Houston Center
04:26PM 30.5405 -98.0213 291° West  Level FlightAware Approximate
04:26PM 30.3447 -98.0433 306° West 323 372 13,000  Level Houston Center
04:27PM 30.5827 -98.1478 291° West  Level FlightAware Approximate
04:27PM 30.4019 -98.1347 306° West 344 396 14,900  Level Houston Center
04:28PM 30.6248 -98.2745 291° West  Level FlightAware Approximate
04:28PM 30.4825 -98.2081 322° Northwest 363 418 16,800  Level Houston Center
04:29PM 30.5683 -98.2772 325° Northwest 369 425 18,900 1,860 Climbing Houston Center
04:30PM 30.6556 -98.3464 326° Northwest 373 429 20,700 1,680 Climbing Houston Center
04:31PM 30.7453 -98.4192 325° Northwest 384 442 22,400 1,980 Climbing Houston Center
04:32PM 30.8497 -98.5042 325° Northwest 387 445 24,900 2,160 Climbing Houston Center
04:33PM 30.9350 -98.5728 325° Northwest 372 428 26,900 1,380 Climbing Houston Center
04:34PM 31.0211 -98.6447 324° Northwest 375 432 27,800 720 Climbing Houston Center
04:35PM 31.1142 -98.7206 325° Northwest 397 457 28,500 660 Climbing Houston Center
04:36PM 31.2114 -98.7997 325° Northwest 416 479 29,200 660 Climbing Houston Center
04:37PM 31.3106 -98.8833 324° Northwest 429 494 29,900 360 Climbing Houston Center
04:38PM 31.4192 -98.9569 330° Northwest 443 510 30,000 60 Climbing Houston Center
04:39PM 31.4811 -98.9919 334° Northwest 446 513 30,000  Level Fort Worth Center
04:40PM 31.5928 -99.0597 333° Northwest 452 520 30,000 240 Level Fort Worth Center
04:41PM 31.6944 -99.1175 334° Northwest 452 520 30,500 960 Climbing Fort Worth Center
04:42PM 31.8064 -99.1808 334° Northwest 446 513 32,000 1,380 Climbing Fort Worth Center
04:43PM 31.9139 -99.2439 334° Northwest 440 506 33,300 1,200 Climbing Fort Worth Center
04:44PM 32.0236 -99.3050 335° Northwest 435 501 34,500 1,140 Climbing Fort Worth Center
04:45PM 32.1269 -99.3686 332° Northwest 430 495 35,600 900 Climbing Fort Worth Center
04:46PM 32.2306 -99.4297 333° Northwest 424 488 36,400 720 Climbing Fort Worth Center
04:47PM 32.3339 -99.4911 333° Northwest 424 488 37,100 540 Climbing Fort Worth Center
04:48PM 32.4394 -99.5525 334° Northwest 424 488 37,500 360 Climbing Fort Worth Center
04:49PM 32.5447 -99.6142 334° Northwest 419 482 37,900 240 Climbing Fort Worth Center
04:50PM 32.6500 -99.6736 335° Northwest 419 482 38,000  Climbing Fort Worth Center
04:51PM 32.7739 -99.7508 332° Northwest 433 498 38,000  Level Fort Worth Center
04:52PM 32.8897 -99.8156 335° Northwest 447 514 38,000  Level Fort Worth Center
04:53PM 33.0031 -99.8856 333° Northwest 447 514 38,000  Level Fort Worth Center
04:54PM 33.1122 -99.9556 332° Northwest 447 514 38,000  Level Fort Worth Center
04:55PM 33.2258 -100.0233 333° Northwest 447 514 38,000  Level Fort Worth Center
04:56PM 33.3392 -100.0914 333° Northwest 447 514 38,000  Level Fort Worth Center
04:57PM 33.4522 -100.1619 332° Northwest 447 514 38,000  Level Fort Worth Center
04:58PM 33.5678 -100.2281 335° Northwest 447 514 38,000  Level Fort Worth Center
04:59PM 33.6808 -100.3039 331° Northwest 447 514 38,000  Level Fort Worth Center
05:01PM 33.9094 -100.4394 334° Northwest 463 533 38,000  Level Albuquerque Center
05:02PM 34.0231 -100.5100 333° Northwest 460 529 38,000  Level Albuquerque Center
05:03PM 34.1372 -100.5817 333° Northwest 463 533 38,000  Level Albuquerque Center
05:04PM 34.2517 -100.6506 334° Northwest 461 531 38,000  Level Albuquerque Center
05:05PM 34.3872 -100.7353 333° Northwest 459 528 38,000  Level Albuquerque Center
05:06PM 34.5006 -100.8072 332° Northwest 459 528 38,000  Level Albuquerque Center
05:07PM 34.6139 -100.8781 333° Northwest 459 528 38,000  Level Albuquerque Center
05:08PM 34.7267 -100.9481 333° Northwest 457 526 38,000  Level Albuquerque Center
05:09PM 34.8383 -101.0181 333° Northwest 454 522 38,000  Level Albuquerque Center
05:10PM 34.9508 -101.0903 332° Northwest 456 525 38,000  Level Albuquerque Center
05:11PM 35.0847 -101.1744 333° Northwest 455 524 38,000  Level Albuquerque Center
05:12PM 35.1964 -101.2456 333° Northwest 455 524 38,000  Level Albuquerque Center
05:13PM 35.3169 -101.3225 332° Northwest 454 522 38,000  Level Albuquerque Center
05:14PM 35.4222 -101.3897 333° Northwest 456 525 38,000  Level Albuquerque Center
05:15PM 35.5469 -101.4714 332° Northwest 449 517 38,000  Level Albuquerque Center
05:16PM 35.6558 -101.5417 332° Northwest 447 514 38,000  Level Albuquerque Center
05:17PM 35.7644 -101.6125 332° Northwest 445 512 38,000  Level Albuquerque Center
05:18PM 35.8747 -101.6828 333° Northwest 447 514 38,000  Level Albuquerque Center
05:19PM 35.9828 -101.7542 332° Northwest 445 512 38,000  Level Albuquerque Center
05:20PM 36.0931 -101.8261 332° Northwest 446 513 38,000  Level Albuquerque Center
05:21PM 36.2233 -101.9119 332° Northwest 445 512 38,000  Level Albuquerque Center
05:22PM 36.3322 -101.9836 332° Northwest 443 510 38,000  Level Albuquerque Center
05:23PM 36.4408 -102.0533 333° Northwest 441 507 38,000  Level Albuquerque Center
05:24PM 36.5500 -102.1264 332° Northwest 444 511 38,000 -300 Level Albuquerque Center
05:25PM 36.6744 -102.2097 332° Northwest 445 512 37,400 -720 Descending Albuquerque Center
05:26PM 36.7658 -102.2692 332° Northwest 438 504 36,600 -720 Descending Albuquerque Center
05:28PM 36.8900 -102.3550 331° Northwest 431 496 36,000 -300 Descending Albuquerque Center
05:29PM 36.9994 -102.4267 332° Northwest 442 509 36,000  Level Albuquerque Center
05:30PM 37.1061 -102.4989 332° Northwest 450 518 36,000  Level Albuquerque Center
05:31PM 37.2250 -102.5806 331° Northwest 455 524 36,000  Level Albuquerque Center
05:32PM 37.3508 -102.6653 332° Northwest 459 528 36,000  Level Albuquerque Center
05:33PM 37.4539 -102.7347 332° Northwest 448 516 36,000  Level Albuquerque Center
05:34PM 37.5719 -102.7967 337° Northwest 417 480 36,000  Level Albuquerque Center
05:35PM 37.6800 -102.8306 346° North 416 479 36,000  Level Albuquerque Center
05:36PM 37.7875 -102.8644 346° North 417 480 36,000 -360 Level Albuquerque Center
05:37PM 37.9328 -102.9092 346° North 419 482 35,200 -840 Descending Denver Center
05:38PM 38.0508 -102.9467 346° North 421 484 34,100 -1,080 Descending Denver Center
05:39PM 38.1592 -103.0269 330° Northwest 406 467 33,000 -1,020 Descending Denver Center
05:40PM 38.2464 -103.1103 323° Northwest 408 470 32,000 -900 Descending Denver Center
05:41PM 38.3183 -103.1811 322° Northwest 409 471 31,200 -1,020 Descending Denver Center
05:42PM 38.4369 -103.2978 322° Northwest 420 483 30,000 -600 Descending Denver Center
05:43PM 38.5375 -103.3961 323° Northwest 411 473 30,000  Level Denver Center
05:44PM 38.6289 -103.4869 322° Northwest 408 470 30,000 -300 Level Denver Center
05:45PM 38.7147 -103.5744 322° Northwest 413 475 29,500 -1,260 Descending Denver Center
05:46PM 38.8136 -103.6717 323° Northwest 401 461 27,400 -1,860 Descending Denver Center
05:47PM 38.8964 -103.7553 322° Northwest 396 456 25,700 -1,800 Descending Denver Center
05:48PM 38.9919 -103.8511 322° Northwest 391 450 23,700 -1,860 Descending Denver Center
05:49PM 39.0683 -103.9283 322° Northwest 372 428 21,900 -1,860 Descending Denver Center
05:50PM 39.1567 -104.0164 322° Northwest 364 419 19,900 -1,500 Descending Denver Center
05:52PM 39.2300 -104.0897 322° Northwest 358 412 18,800 -1,020 Descending Denver Center
05:53PM 39.2744 -104.1886 300° West 300 345 17,900 -1,020 Descending Denver Center
05:54PM 39.2956 -104.2808 287° West 254 292 16,800 -1,260 Descending Denver Center
05:55PM 39.3147 -104.3650 286° West 246 283 15,400 -1,440 Descending Denver Center
05:56PM 39.3589 -104.4475 305° West 260 299 13,900 -1,320 Descending Denver Center
05:57PM 39.4022 -104.5228 307° West 259 298 12,700 -1,020 Descending Denver Center
05:58PM 39.4594 -104.5792 323° Northwest 267 307 11,800 -1,020 Descending Denver Center
05:59PM 39.5372 -104.6197 338° Northwest 282 325 10,700 -960 Descending Denver Center
06:00PM 39.6100 -104.6567 339° North 284 327 9,900 -780 Descending Denver Center